createdAt,value
2022-12-08T00:01:39.916Z,-0.56
2022-12-08T00:07:02.561Z,-0.56
2022-12-08T00:12:07.991Z,-0.54
2022-12-08T00:17:12.232Z,-0.54
2022-12-08T00:22:15.453Z,-0.51
2022-12-08T00:27:18.350Z,-0.50
2022-12-08T00:32:20.428Z,-0.50
2022-12-08T00:37:22.464Z,-0.49
2022-12-08T00:42:24.392Z,-0.46
2022-12-08T00:47:26.352Z,-0.45
2022-12-08T00:52:28.348Z,-0.45
2022-12-08T00:57:30.451Z,-0.44
2022-12-08T01:02:34.633Z,-0.43
2022-12-08T01:07:37.124Z,-0.43
2022-12-08T01:12:39.095Z,-0.41
2022-12-08T01:17:41.110Z,-0.41
2022-12-08T01:22:43.121Z,-0.42
2022-12-08T01:27:45.061Z,-0.43
2022-12-08T01:32:47.640Z,-0.40
2022-12-08T01:37:50.848Z,-0.40
2022-12-08T01:42:53.026Z,-0.40
2022-12-08T01:48:00.638Z,-0.40
2022-12-08T01:53:11.226Z,-0.41
2022-12-08T01:58:21.582Z,-0.40
2022-12-08T02:03:43.509Z,-0.40
2022-12-08T02:08:46.358Z,-0.40
2022-12-08T02:13:50.370Z,-0.40
2022-12-08T02:19:32.546Z,-0.39
2022-12-08T02:24:39.259Z,-0.40
2022-12-08T02:30:10.118Z,-0.40
2022-12-08T02:35:23.742Z,-0.40
2022-12-08T02:40:34.012Z,-0.43
2022-12-08T02:45:48.015Z,-0.45
2022-12-08T02:50:50.049Z,-0.47
2022-12-08T02:56:10.571Z,-0.50
2022-12-08T03:01:32.492Z,-0.52
2022-12-08T03:06:53.142Z,-0.53
2022-12-08T03:12:14.315Z,-0.55
2022-12-08T03:17:19.928Z,-0.58
2022-12-08T03:22:26.093Z,-0.59
2022-12-08T03:27:31.091Z,-0.61
2022-12-08T03:32:51.300Z,-0.61
2022-12-08T03:38:03.923Z,-0.60
2022-12-08T03:43:06.079Z,-0.61
2022-12-08T03:48:08.010Z,-0.60
2022-12-08T03:53:09.979Z,-0.61
2022-12-08T03:58:11.906Z,-0.61
2022-12-08T04:03:13.929Z,-0.61
2022-12-08T04:08:16.063Z,-0.61
2022-12-08T04:13:18.184Z,-0.60
2022-12-08T04:18:20.188Z,-0.61
2022-12-08T04:23:22.305Z,-0.60
2022-12-08T04:28:24.328Z,-0.60
2022-12-08T04:33:26.269Z,-0.59
2022-12-08T04:38:28.827Z,-0.58
2022-12-08T04:43:30.798Z,-0.59
2022-12-08T04:48:32.745Z,-0.57
2022-12-08T04:53:34.769Z,-0.59
2022-12-08T04:58:36.699Z,-0.58
2022-12-08T05:03:38.997Z,-0.57
2022-12-08T05:08:42.130Z,-0.58
2022-12-08T05:13:44.139Z,-0.59
2022-12-08T05:18:46.167Z,-0.61
2022-12-08T05:23:48.099Z,-0.62
2022-12-08T05:28:50.067Z,-0.63
2022-12-08T05:33:52.647Z,-0.65
2022-12-08T05:38:57.388Z,-0.69
2022-12-08T05:43:59.495Z,-0.71
2022-12-08T05:49:01.908Z,-0.73
2022-12-08T05:54:03.911Z,-0.75
2022-12-08T05:59:07.377Z,-0.78
2022-12-08T06:04:09.669Z,-0.79
2022-12-08T06:09:12.776Z,-0.81
2022-12-08T06:14:14.801Z,-0.81
2022-12-08T06:19:16.808Z,-0.82
2022-12-08T06:24:18.839Z,-0.84
2022-12-08T06:29:20.851Z,-0.84
2022-12-08T06:34:22.874Z,-0.84
2022-12-08T06:39:24.872Z,-0.85
2022-12-08T06:44:26.950Z,-0.86
2022-12-08T06:49:28.919Z,-0.86
2022-12-08T06:54:31.200Z,-0.86
2022-12-08T06:59:33.250Z,-0.86
2022-12-08T07:04:35.222Z,-0.86
2022-12-08T07:09:37.315Z,-0.86
2022-12-08T07:14:39.419Z,-0.85
2022-12-08T07:19:41.450Z,-0.86
2022-12-08T07:24:43.418Z,-0.86
2022-12-08T07:29:45.396Z,-0.84
2022-12-08T07:34:47.489Z,-0.85
2022-12-08T07:39:49.540Z,-0.83
2022-12-08T07:44:51.622Z,-0.82
2022-12-08T07:49:53.663Z,-0.80
2022-12-08T07:54:55.664Z,-0.76
2022-12-08T07:59:57.693Z,-0.72
2022-12-08T08:04:59.737Z,-0.69
2022-12-08T08:10:01.947Z,-0.65
2022-12-08T08:15:07.917Z,-0.61
2022-12-08T08:20:10.585Z,-0.59
2022-12-08T08:25:12.646Z,-0.55
2022-12-08T08:30:20.297Z,-0.54
2022-12-08T08:35:22.682Z,-0.50
2022-12-08T08:40:24.792Z,-0.45
2022-12-08T08:45:27.063Z,-0.41
2022-12-08T08:50:34.345Z,-0.37
2022-12-08T08:55:40.344Z,-0.31
2022-12-08T09:00:42.597Z,-0.23
2022-12-08T09:05:45.087Z,-0.10
2022-12-08T09:10:47.101Z,0.03
2022-12-08T09:15:49.177Z,0.19
2022-12-08T09:20:51.319Z,0.34
2022-12-08T09:25:53.370Z,0.53
2022-12-08T09:30:55.412Z,0.65
2022-12-08T09:35:57.543Z,0.77
2022-12-08T09:41:02.184Z,0.90
2022-12-08T09:46:09.892Z,1.01
2022-12-08T09:51:14.754Z,1.09
2022-12-08T09:56:22.731Z,1.14
2022-12-08T10:01:30.049Z,1.18
2022-12-08T10:06:41.638Z,1.21
2022-12-08T10:11:56.222Z,1.23
2022-12-08T10:17:04.366Z,1.25
2022-12-08T10:22:22.529Z,1.28
2022-12-08T10:27:25.480Z,1.29
2022-12-08T10:32:36.142Z,1.30
2022-12-08T10:37:38.801Z,1.33
2022-12-08T10:42:49.029Z,1.34
2022-12-08T10:47:56.852Z,1.37
2022-12-08T10:53:23.141Z,1.38
2022-12-08T10:58:34.272Z,1.40
2022-12-08T11:03:45.145Z,1.40
2022-12-08T11:08:56.650Z,1.43
2022-12-08T11:13:58.850Z,1.44
2022-12-08T11:19:07.179Z,1.44
2022-12-08T11:24:14.999Z,1.49
2022-12-08T11:29:17.704Z,1.50
2022-12-08T11:34:37.246Z,1.52
2022-12-08T11:39:45.321Z,1.58
2022-12-08T11:44:53.288Z,1.58
2022-12-08T11:50:19.742Z,1.62
2022-12-08T11:55:37.117Z,1.63
2022-12-08T12:00:41.077Z,1.65
2022-12-08T12:06:30.864Z,1.68
2022-12-08T12:11:40.239Z,1.71
2022-12-08T12:16:56.200Z,1.73
2022-12-08T12:22:00.419Z,1.79
2022-12-08T12:27:15.578Z,1.81
2022-12-08T12:32:17.980Z,1.87
2022-12-08T12:37:36.897Z,1.88
2022-12-08T12:42:45.000Z,1.89
2022-12-08T12:47:56.966Z,1.91
2022-12-08T12:53:26.398Z,1.94
2022-12-08T12:58:28.330Z,1.99
2022-12-08T13:03:30.414Z,2.03
2022-12-08T13:08:33.480Z,2.06
2022-12-08T13:13:37.021Z,2.14
2022-12-08T13:18:43.494Z,2.16
2022-12-08T13:23:49.586Z,2.17
2022-12-08T13:29:15.872Z,2.20
2022-12-08T13:34:31.789Z,2.21
2022-12-08T13:39:50.053Z,2.22
2022-12-08T13:52:25.874Z,2.20
2022-12-08T14:01:25.413Z,2.16
2022-12-08T14:06:37.678Z,2.15
2022-12-08T14:12:01.636Z,2.12
2022-12-08T14:17:06.978Z,2.09
2022-12-08T14:22:08.966Z,2.07
2022-12-08T14:27:15.724Z,2.07
2022-12-08T14:32:29.327Z,2.04
2022-12-08T14:37:35.911Z,2.00
2022-12-08T14:42:46.820Z,2.00
2022-12-08T14:47:48.943Z,1.98
2022-12-08T14:52:51.057Z,1.96
2022-12-08T14:57:53.320Z,1.94
2022-12-08T15:02:57.358Z,1.90
2022-12-08T15:08:03.380Z,1.84
2022-12-08T15:13:11.394Z,1.80
2022-12-08T15:18:29.260Z,1.76
2022-12-08T15:23:38.743Z,1.72
2022-12-08T15:28:40.791Z,1.68
2022-12-08T15:33:42.810Z,1.64
2022-12-08T15:38:44.906Z,1.58
2022-12-08T15:43:46.915Z,1.54
2022-12-08T15:48:51.394Z,1.49
2022-12-08T15:53:57.016Z,1.46
2022-12-08T15:58:59.317Z,1.42
2022-12-08T16:09:26.547Z,1.36
2022-12-08T16:19:50.955Z,1.29
2022-12-08T16:24:53.328Z,1.24
2022-12-08T16:29:56.861Z,1.20
2022-12-08T16:34:59.154Z,1.17
2022-12-08T16:40:01.416Z,1.14
2022-12-08T16:45:15.103Z,1.10
2022-12-08T16:50:23.528Z,1.08
2022-12-08T16:55:26.411Z,1.05
2022-12-08T17:00:30.200Z,1.03
2022-12-08T17:05:32.866Z,0.98
2022-12-08T17:10:38.677Z,0.96
2022-12-08T17:15:41.288Z,0.94
2022-12-08T17:20:43.723Z,0.90
2022-12-08T17:25:56.968Z,0.88
2022-12-08T17:31:00.602Z,0.85
2022-12-08T17:36:02.804Z,0.81
2022-12-08T17:41:06.749Z,0.79
2022-12-08T17:46:08.971Z,0.74
2022-12-08T17:51:11.207Z,0.70
2022-12-08T17:56:20.113Z,0.67
2022-12-08T18:01:23.844Z,0.63
2022-12-08T18:06:30.958Z,0.60
2022-12-08T18:11:35.267Z,0.57
2022-12-08T18:16:40.520Z,0.54
2022-12-08T18:21:44.346Z,0.50
2022-12-08T18:26:47.720Z,0.48
2022-12-08T18:31:51.372Z,0.44
2022-12-08T18:36:54.572Z,0.42
2022-12-08T18:41:57.473Z,0.39
2022-12-08T18:46:59.953Z,0.39
2022-12-08T18:52:02.780Z,0.38
2022-12-08T18:57:06.807Z,0.38
2022-12-08T19:02:11.980Z,0.38
2022-12-08T19:07:17.742Z,0.37
2022-12-08T19:12:20.663Z,0.36
2022-12-08T19:17:23.272Z,0.35
2022-12-08T19:22:26.430Z,0.32
2022-12-08T19:27:29.730Z,0.32
2022-12-08T19:32:32.458Z,0.33
2022-12-08T19:37:37.234Z,0.32
2022-12-08T19:43:00.108Z,0.31
2022-12-08T19:48:06.210Z,0.32
2022-12-08T19:53:15.051Z,0.31
2022-12-08T19:58:20.716Z,0.30
2022-12-08T20:03:24.154Z,0.29
2022-12-08T20:08:27.335Z,0.27
2022-12-08T20:13:42.371Z,0.27
2022-12-08T20:18:45.444Z,0.25
2022-12-08T20:23:52.187Z,0.21
2022-12-08T20:28:56.935Z,0.20
2022-12-08T20:34:00.536Z,0.19
2022-12-08T20:39:03.079Z,0.14
2022-12-08T20:44:07.242Z,0.12
2022-12-08T20:49:09.916Z,0.10
2022-12-08T20:54:13.362Z,0.08
2022-12-08T20:59:18.915Z,0.05
2022-12-08T21:04:22.228Z,0.03
2022-12-08T21:09:24.266Z,0.00
2022-12-08T21:14:27.052Z,-0.02
2022-12-08T21:19:29.241Z,-0.05
2022-12-08T21:24:34.334Z,-0.07
2022-12-08T21:29:36.870Z,-0.07
2022-12-08T21:34:39.112Z,-0.09
2022-12-08T21:39:41.249Z,-0.09
2022-12-08T21:44:43.321Z,-0.08
2022-12-08T21:49:45.625Z,-0.09
2022-12-08T21:54:47.697Z,-0.10
2022-12-08T21:59:49.737Z,-0.10
2022-12-08T22:04:52.976Z,-0.10
2022-12-08T22:09:55.197Z,-0.12
2022-12-08T22:14:57.513Z,-0.11
2022-12-08T22:19:59.757Z,-0.11
2022-12-08T22:25:03.543Z,-0.11
2022-12-08T22:30:06.639Z,-0.11
2022-12-08T22:35:09.811Z,-0.11
2022-12-08T22:40:12.274Z,-0.13
2022-12-08T22:45:14.754Z,-0.14
2022-12-08T22:50:16.897Z,-0.16
2022-12-08T22:55:18.933Z,-0.17
2022-12-08T23:00:20.995Z,-0.20
2022-12-08T23:05:23.267Z,-0.21
2022-12-08T23:10:25.485Z,-0.24
2022-12-08T23:15:28.078Z,-0.25
2022-12-08T23:20:30.170Z,-0.28
2022-12-08T23:25:32.137Z,-0.30
2022-12-08T23:30:34.271Z,-0.31
2022-12-08T23:35:36.353Z,-0.34
2022-12-08T23:40:38.474Z,-0.35
2022-12-08T23:45:40.632Z,-0.35
2022-12-08T23:50:42.810Z,-0.37
2022-12-08T23:55:44.875Z,-0.38
